sensor_id;sensor_type;location;lat;lon;timestamp;P1;durP1;ratioP1;P2;durP2;ratioP2
41568;SDS011;27283;52.504;13.358;2023-03-14T00:00:20;4.10;;;1.55;;
41568;SDS011;27283;52.504;13.358;2023-03-14T00:03:12;2.40;;;1.20;;
41568;SDS011;27283;52.504;13.358;2023-03-14T00:05:47;2.38;;;1.40;;
41568;SDS011;27283;52.504;13.358;2023-03-14T00:08:19;1.95;;;1.30;;
41568;SDS011;27283;52.504;13.358;2023-03-14T00:11:21;2.75;;;1.50;;
41568;SDS011;27283;52.504;13.358;2023-03-14T00:13:54;3.75;;;1.50;;
41568;SDS011;27283;52.504;13.358;2023-03-14T00:16:26;2.53;;;1.38;;
41568;SDS011;27283;52.504;13.358;2023-03-14T00:18:59;3.45;;;1.50;;
41568;SDS011;27283;52.504;13.358;2023-03-14T00:21:34;2.30;;;1.50;;
41568;SDS011;27283;52.504;13.358;2023-03-14T00:24:06;3.28;;;1.50;;
41568;SDS011;27283;52.504;13.358;2023-03-14T00:26:39;4.07;;;1.42;;
41568;SDS011;27283;52.504;13.358;2023-03-14T00:29:11;4.93;;;1.58;;
41568;SDS011;27283;52.504;13.358;2023-03-14T00:31:44;4.15;;;1.60;;
41568;SDS011;27283;52.504;13.358;2023-03-14T00:34:16;2.63;;;1.50;;
41568;SDS011;27283;52.504;13.358;2023-03-14T00:36:51;2.67;;;1.45;;
41568;SDS011;27283;52.504;13.358;2023-03-14T00:39:23;2.20;;;1.30;;
41568;SDS011;27283;52.504;13.358;2023-03-14T00:42:07;4.53;;;1.70;;
41568;SDS011;27283;52.504;13.358;2023-03-14T00:44:39;2.63;;;1.48;;
41568;SDS011;27283;52.504;13.358;2023-03-14T00:47:11;3.95;;;1.50;;
41568;SDS011;27283;52.504;13.358;2023-03-14T00:49:43;3.90;;;1.63;;
41568;SDS011;27283;52.504;13.358;2023-03-14T00:52:18;4.07;;;1.60;;
41568;SDS011;27283;52.504;13.358;2023-03-14T00:54:52;2.72;;;1.70;;
41568;SDS011;27283;52.504;13.358;2023-03-14T00:57:24;2.97;;;1.35;;
41568;SDS011;27283;52.504;13.358;2023-03-14T00:59:56;1.92;;;1.27;;
41568;SDS011;27283;52.504;13.358;2023-03-14T01:02:31;2.25;;;1.30;;
41568;SDS011;27283;52.504;13.358;2023-03-14T01:05:03;2.90;;;1.33;;
41568;SDS011;27283;52.504;13.358;2023-03-14T01:07:41;3.75;;;1.50;;
41568;SDS011;27283;52.504;13.358;2023-03-14T01:10:13;3.45;;;1.67;;
41568;SDS011;27283;52.504;13.358;2023-03-14T01:12:45;3.47;;;1.60;;
41568;SDS011;27283;52.504;13.358;2023-03-14T01:15:17;2.92;;;1.60;;
41568;SDS011;27283;52.504;13.358;2023-03-14T01:17:49;3.20;;;1.63;;
41568;SDS011;27283;52.504;13.358;2023-03-14T01:20:21;3.63;;;1.48;;
41568;SDS011;27283;52.504;13.358;2023-03-14T01:23:02;1.90;;;1.50;;
41568;SDS011;27283;52.504;13.358;2023-03-14T01:25:40;4.30;;;1.60;;
41568;SDS011;27283;52.504;13.358;2023-03-14T01:28:12;2.80;;;1.42;;
41568;SDS011;27283;52.504;13.358;2023-03-14T01:30:44;3.13;;;1.40;;
41568;SDS011;27283;52.504;13.358;2023-03-14T01:33:17;2.13;;;1.33;;
41568;SDS011;27283;52.504;13.358;2023-03-14T01:35:52;3.30;;;1.50;;
41568;SDS011;27283;52.504;13.358;2023-03-14T01:38:31;2.25;;;1.60;;
41568;SDS011;27283;52.504;13.358;2023-03-14T01:41:05;2.42;;;1.42;;
41568;SDS011;27283;52.504;13.358;2023-03-14T01:43:37;4.80;;;1.40;;
41568;SDS011;27283;52.504;13.358;2023-03-14T01:49:01;2.35;;;1.35;;
41568;SDS011;27283;52.504;13.358;2023-03-14T01:51:40;3.92;;;1.40;;
41568;SDS011;27283;52.504;13.358;2023-03-14T01:54:21;1.73;;;1.27;;
41568;SDS011;27283;52.504;13.358;2023-03-14T01:56:56;2.92;;;1.45;;
41568;SDS011;27283;52.504;13.358;2023-03-14T01:59:33;2.25;;;1.20;;
41568;SDS011;27283;52.504;13.358;2023-03-14T02:02:07;3.30;;;1.50;;
41568;SDS011;27283;52.504;13.358;2023-03-14T02:04:44;1.90;;;1.10;;
41568;SDS011;27283;52.504;13.358;2023-03-14T02:07:17;2.85;;;1.17;;
41568;SDS011;27283;52.504;13.358;2023-03-14T02:09:56;1.67;;;1.30;;
41568;SDS011;27283;52.504;13.358;2023-03-14T02:12:32;3.47;;;1.50;;
41568;SDS011;27283;52.504;13.358;2023-03-14T02:15:06;3.92;;;1.27;;
41568;SDS011;27283;52.504;13.358;2023-03-14T02:17:39;3.13;;;1.13;;
41568;SDS011;27283;52.504;13.358;2023-03-14T02:20:17;1.90;;;1.30;;
41568;SDS011;27283;52.504;13.358;2023-03-14T02:22:58;2.70;;;1.25;;
41568;SDS011;27283;52.504;13.358;2023-03-14T02:25:38;2.22;;;1.20;;
41568;SDS011;27283;52.504;13.358;2023-03-14T02:28:17;3.75;;;1.45;;
41568;SDS011;27283;52.504;13.358;2023-03-14T02:30:49;2.15;;;1.17;;
41568;SDS011;27283;52.504;13.358;2023-03-14T02:33:21;3.80;;;1.30;;
41568;SDS011;27283;52.504;13.358;2023-03-14T02:35:55;2.30;;;1.13;;
41568;SDS011;27283;52.504;13.358;2023-03-14T02:38:33;3.60;;;1.20;;
41568;SDS011;27283;52.504;13.358;2023-03-14T02:41:17;2.63;;;1.00;;
41568;SDS011;27283;52.504;13.358;2023-03-14T02:43:52;1.83;;;1.13;;
41568;SDS011;27283;52.504;13.358;2023-03-14T02:46:24;1.83;;;1.10;;
41568;SDS011;27283;52.504;13.358;2023-03-14T02:48:57;1.65;;;1.17;;
41568;SDS011;27283;52.504;13.358;2023-03-14T02:51:33;2.25;;;1.40;;
41568;SDS011;27283;52.504;13.358;2023-03-14T02:54:06;1.98;;;1.20;;
41568;SDS011;27283;52.504;13.358;2023-03-14T02:56:39;1.92;;;1.00;;
41568;SDS011;27283;52.504;13.358;2023-03-14T02:59:14;3.92;;;1.30;;
41568;SDS011;27283;52.504;13.358;2023-03-14T03:01:46;1.50;;;1.10;;
41568;SDS011;27283;52.504;13.358;2023-03-14T03:04:18;3.05;;;1.13;;
41568;SDS011;27283;52.504;13.358;2023-03-14T03:06:51;1.60;;;1.38;;
41568;SDS011;27283;52.504;13.358;2023-03-14T03:09:23;2.22;;;1.20;;
41568;SDS011;27283;52.504;13.358;2023-03-14T03:11:55;1.65;;;0.88;;
41568;SDS011;27283;52.504;13.358;2023-03-14T03:14:30;2.13;;;1.10;;
41568;SDS011;27283;52.504;13.358;2023-03-14T03:17:02;2.53;;;1.00;;
41568;SDS011;27283;52.504;13.358;2023-03-14T03:19:33;2.42;;;1.10;;
41568;SDS011;27283;52.504;13.358;2023-03-14T03:22:06;3.35;;;1.10;;
41568;SDS011;27283;52.504;13.358;2023-03-14T03:24:38;2.00;;;1.20;;
41568;SDS011;27283;52.504;13.358;2023-03-14T03:27:11;2.78;;;1.20;;
41568;SDS011;27283;52.504;13.358;2023-03-14T03:29:45;1.75;;;1.10;;
41568;SDS011;27283;52.504;13.358;2023-03-14T03:32:17;1.52;;;1.13;;
41568;SDS011;27283;52.504;13.358;2023-03-14T03:34:49;2.05;;;1.20;;
41568;SDS011;27283;52.504;13.358;2023-03-14T03:37:22;1.30;;;1.10;;
41568;SDS011;27283;52.504;13.358;2023-03-14T03:39:54;1.90;;;1.30;;
41568;SDS011;27283;52.504;13.358;2023-03-14T03:42:26;2.55;;;1.08;;
41568;SDS011;27283;52.504;13.358;2023-03-14T03:45:01;2.05;;;1.10;;
41568;SDS011;27283;52.504;13.358;2023-03-14T03:47:34;2.30;;;1.27;;
41568;SDS011;27283;52.504;13.358;2023-03-14T03:50:06;3.00;;;1.25;;
41568;SDS011;27283;52.504;13.358;2023-03-14T03:52:39;1.83;;;1.25;;
41568;SDS011;27283;52.504;13.358;2023-03-14T03:55:11;2.35;;;1.20;;
41568;SDS011;27283;52.504;13.358;2023-03-14T03:57:43;2.38;;;1.27;;
41568;SDS011;27283;52.504;13.358;2023-03-14T04:00:18;3.05;;;1.30;;
41568;SDS011;27283;52.504;13.358;2023-03-14T04:02:50;3.20;;;1.30;;
41568;SDS011;27283;52.504;13.358;2023-03-14T04:05:22;1.48;;;1.00;;
41568;SDS011;27283;52.504;13.358;2023-03-14T04:07:54;1.95;;;1.30;;
41568;SDS011;27283;52.504;13.358;2023-03-14T04:10:26;2.97;;;1.00;;
41568;SDS011;27283;52.504;13.358;2023-03-14T04:12:58;2.55;;;1.27;;
41568;SDS011;27283;52.504;13.358;2023-03-14T04:15:33;4.00;;;1.40;;
41568;SDS011;27283;52.504;13.358;2023-03-14T04:18:05;1.67;;;1.20;;
41568;SDS011;27283;52.504;13.358;2023-03-14T04:20:36;1.45;;;1.05;;
41568;SDS011;27283;52.504;13.358;2023-03-14T04:23:08;1.83;;;1.13;;
41568;SDS011;27283;52.504;13.358;2023-03-14T04:25:40;2.78;;;1.25;;
41568;SDS011;27283;52.504;13.358;2023-03-14T04:28:13;1.40;;;1.20;;
41568;SDS011;27283;52.504;13.358;2023-03-14T04:30:47;1.92;;;1.10;;
41568;SDS011;27283;52.504;13.358;2023-03-14T04:33:19;2.50;;;1.20;;
41568;SDS011;27283;52.504;13.358;2023-03-14T04:35:53;2.53;;;1.25;;
41568;SDS011;27283;52.504;13.358;2023-03-14T04:38:26;3.90;;;1.20;;
41568;SDS011;27283;52.504;13.358;2023-03-14T04:40:57;2.40;;;1.00;;
41568;SDS011;27283;52.504;13.358;2023-03-14T04:43:30;1.85;;;1.10;;
41568;SDS011;27283;52.504;13.358;2023-03-14T04:46:05;2.53;;;1.25;;
41568;SDS011;27283;52.504;13.358;2023-03-14T04:48:38;2.53;;;1.15;;
41568;SDS011;27283;52.504;13.358;2023-03-14T04:51:09;3.08;;;1.30;;
41568;SDS011;27283;52.504;13.358;2023-03-14T04:53:41;2.55;;;1.23;;
41568;SDS011;27283;52.504;13.358;2023-03-14T04:56:13;2.85;;;1.50;;
41568;SDS011;27283;52.504;13.358;2023-03-14T04:58:45;3.00;;;1.30;;
41568;SDS011;27283;52.504;13.358;2023-03-14T05:01:19;3.50;;;1.30;;
41568;SDS011;27283;52.504;13.358;2023-03-14T05:03:51;2.78;;;1.30;;
41568;SDS011;27283;52.504;13.358;2023-03-14T05:06:23;4.13;;;1.45;;
41568;SDS011;27283;52.504;13.358;2023-03-14T05:08:55;2.20;;;1.20;;
41568;SDS011;27283;52.504;13.358;2023-03-14T05:11:27;1.35;;;1.23;;
41568;SDS011;27283;52.504;13.358;2023-03-14T05:13:59;1.65;;;1.40;;
41568;SDS011;27283;52.504;13.358;2023-03-14T05:16:34;2.85;;;1.30;;
41568;SDS011;27283;52.504;13.358;2023-03-14T05:19:06;2.20;;;1.30;;
41568;SDS011;27283;52.504;13.358;2023-03-14T05:21:39;2.38;;;1.50;;
41568;SDS011;27283;52.504;13.358;2023-03-14T05:24:12;2.55;;;1.20;;
41568;SDS011;27283;52.504;13.358;2023-03-14T05:26:43;3.45;;;1.20;;
41568;SDS011;27283;52.504;13.358;2023-03-14T05:29:16;2.25;;;1.20;;
41568;SDS011;27283;52.504;13.358;2023-03-14T05:31:51;3.05;;;1.30;;
41568;SDS011;27283;52.504;13.358;2023-03-14T05:34:23;5.20;;;1.40;;
41568;SDS011;27283;52.504;13.358;2023-03-14T05:36:55;5.85;;;1.65;;
41568;SDS011;27283;52.504;13.358;2023-03-14T05:39:28;2.90;;;1.23;;
41568;SDS011;27283;52.504;13.358;2023-03-14T05:42:00;2.50;;;1.35;;
41568;SDS011;27283;52.504;13.358;2023-03-14T05:44:32;5.03;;;1.20;;
41568;SDS011;27283;52.504;13.358;2023-03-14T05:47:07;2.35;;;1.10;;
41568;SDS011;27283;52.504;13.358;2023-03-14T05:49:39;2.47;;;1.27;;
41568;SDS011;27283;52.504;13.358;2023-03-14T05:52:11;3.90;;;1.27;;
41568;SDS011;27283;52.504;13.358;2023-03-14T05:54:44;5.00;;;1.50;;
41568;SDS011;27283;52.504;13.358;2023-03-14T05:57:16;3.15;;;1.33;;
41568;SDS011;27283;52.504;13.358;2023-03-14T05:59:48;3.60;;;1.48;;
41568;SDS011;27283;52.504;13.358;2023-03-14T06:02:24;4.72;;;1.50;;
41568;SDS011;27283;52.504;13.358;2023-03-14T06:04:57;3.55;;;1.48;;
41568;SDS011;27283;52.504;13.358;2023-03-14T06:07:29;6.22;;;1.40;;
41568;SDS011;27283;52.504;13.358;2023-03-14T06:10:01;3.05;;;1.48;;
41568;SDS011;27283;52.504;13.358;2023-03-14T06:12:34;3.10;;;1.30;;
41568;SDS011;27283;52.504;13.358;2023-03-14T06:15:07;3.45;;;1.40;;
41568;SDS011;27283;52.504;13.358;2023-03-14T06:17:42;6.38;;;1.80;;
41568;SDS011;27283;52.504;13.358;2023-03-14T06:20:15;5.55;;;1.40;;
41568;SDS011;27283;52.504;13.358;2023-03-14T06:22:47;5.22;;;1.65;;
41568;SDS011;27283;52.504;13.358;2023-03-14T06:25:19;3.17;;;1.50;;
41568;SDS011;27283;52.504;13.358;2023-03-14T06:27:51;2.28;;;1.48;;
41568;SDS011;27283;52.504;13.358;2023-03-14T06:30:24;4.03;;;1.35;;
41568;SDS011;27283;52.504;13.358;2023-03-14T06:32:59;5.55;;;1.48;;
41568;SDS011;27283;52.504;13.358;2023-03-14T06:35:31;4.32;;;1.60;;
41568;SDS011;27283;52.504;13.358;2023-03-14T06:38:04;3.58;;;1.40;;
41568;SDS011;27283;52.504;13.358;2023-03-14T06:40:36;4.20;;;1.50;;
41568;SDS011;27283;52.504;13.358;2023-03-14T06:43:08;5.70;;;1.50;;
41568;SDS011;27283;52.504;13.358;2023-03-14T06:45:41;7.78;;;1.85;;
41568;SDS011;27283;52.504;13.358;2023-03-14T06:48:15;2.92;;;1.30;;
41568;SDS011;27283;52.504;13.358;2023-03-14T06:50:48;3.38;;;1.60;;
41568;SDS011;27283;52.504;13.358;2023-03-14T06:53:20;3.88;;;1.40;;
41568;SDS011;27283;52.504;13.358;2023-03-14T06:55:52;3.28;;;1.40;;
41568;SDS011;27283;52.504;13.358;2023-03-14T06:58:24;5.10;;;1.80;;
41568;SDS011;27283;52.504;13.358;2023-03-14T07:00:56;5.40;;;1.52;;
41568;SDS011;27283;52.504;13.358;2023-03-14T07:03:30;9.13;;;1.95;;
41568;SDS011;27283;52.504;13.358;2023-03-14T07:06:03;5.93;;;1.70;;
41568;SDS011;27283;52.504;13.358;2023-03-14T07:08:35;4.85;;;1.52;;
41568;SDS011;27283;52.504;13.358;2023-03-14T07:11:07;8.00;;;1.80;;
41568;SDS011;27283;52.504;13.358;2023-03-14T07:13:40;4.78;;;1.60;;
41568;SDS011;27283;52.504;13.358;2023-03-14T07:16:13;3.53;;;1.50;;
41568;SDS011;27283;52.504;13.358;2023-03-14T07:18:47;5.18;;;1.40;;
41568;SDS011;27283;52.504;13.358;2023-03-14T07:21:20;5.47;;;1.73;;
41568;SDS011;27283;52.504;13.358;2023-03-14T07:23:52;6.10;;;1.70;;
41568;SDS011;27283;52.504;13.358;2023-03-14T07:26:24;4.05;;;1.65;;
41568;SDS011;27283;52.504;13.358;2023-03-14T07:28:57;3.72;;;1.40;;
41568;SDS011;27283;52.504;13.358;2023-03-14T07:31:31;7.70;;;1.70;;
41568;SDS011;27283;52.504;13.358;2023-03-14T07:34:05;7.63;;;1.65;;
41568;SDS011;27283;52.504;13.358;2023-03-14T07:36:38;4.35;;;1.40;;
41568;SDS011;27283;52.504;13.358;2023-03-14T07:39:09;7.18;;;1.48;;
41568;SDS011;27283;52.504;13.358;2023-03-14T07:41:42;6.32;;;1.63;;
41568;SDS011;27283;52.504;13.358;2023-03-14T07:44:13;5.38;;;1.80;;
41568;SDS011;27283;52.504;13.358;2023-03-14T07:46:46;5.90;;;1.63;;
41568;SDS011;27283;52.504;13.358;2023-03-14T07:49:20;6.75;;;2.20;;
41568;SDS011;27283;52.504;13.358;2023-03-14T07:51:52;4.47;;;1.50;;
41568;SDS011;27283;52.504;13.358;2023-03-14T07:54:24;6.72;;;1.77;;
41568;SDS011;27283;52.504;13.358;2023-03-14T07:56:56;3.72;;;1.55;;
41568;SDS011;27283;52.504;13.358;2023-03-14T07:59:29;5.57;;;1.60;;
41568;SDS011;27283;52.504;13.358;2023-03-14T08:02:01;5.05;;;1.67;;
41568;SDS011;27283;52.504;13.358;2023-03-14T08:04:40;5.70;;;1.80;;
41568;SDS011;27283;52.504;13.358;2023-03-14T08:07:13;8.60;;;1.85;;
41568;SDS011;27283;52.504;13.358;2023-03-14T08:09:45;5.20;;;1.50;;
41568;SDS011;27283;52.504;13.358;2023-03-14T08:12:18;3.15;;;1.52;;
41568;SDS011;27283;52.504;13.358;2023-03-14T08:14:50;3.78;;;1.35;;
41568;SDS011;27283;52.504;13.358;2023-03-14T08:17:23;5.97;;;1.83;;
41568;SDS011;27283;52.504;13.358;2023-03-14T08:19:58;6.15;;;1.55;;
41568;SDS011;27283;52.504;13.358;2023-03-14T08:22:31;4.93;;;1.60;;
41568;SDS011;27283;52.504;13.358;2023-03-14T08:25:04;4.22;;;1.35;;
41568;SDS011;27283;52.504;13.358;2023-03-14T08:27:37;7.85;;;1.85;;
41568;SDS011;27283;52.504;13.358;2023-03-14T08:30:12;5.95;;;1.60;;
41568;SDS011;27283;52.504;13.358;2023-03-14T08:32:47;8.07;;;1.85;;
41568;SDS011;27283;52.504;13.358;2023-03-14T08:35:21;7.68;;;2.00;;
41568;SDS011;27283;52.504;13.358;2023-03-14T08:37:54;5.47;;;1.65;;
41568;SDS011;27283;52.504;13.358;2023-03-14T08:40:26;7.05;;;2.05;;
41568;SDS011;27283;52.504;13.358;2023-03-14T08:42:58;6.70;;;1.40;;
41568;SDS011;27283;52.504;13.358;2023-03-14T08:45:30;6.22;;;1.70;;
41568;SDS011;27283;52.504;13.358;2023-03-14T08:48:03;8.50;;;2.00;;
41568;SDS011;27283;52.504;13.358;2023-03-14T08:50:38;7.53;;;1.83;;
41568;SDS011;27283;52.504;13.358;2023-03-14T08:53:10;6.10;;;1.50;;
41568;SDS011;27283;52.504;13.358;2023-03-14T08:55:43;5.40;;;1.60;;
41568;SDS011;27283;52.504;13.358;2023-03-14T08:58:16;4.32;;;1.83;;
41568;SDS011;27283;52.504;13.358;2023-03-14T09:00:48;6.40;;;1.70;;
41568;SDS011;27283;52.504;13.358;2023-03-14T09:03:21;5.07;;;1.60;;
41568;SDS011;27283;52.504;13.358;2023-03-14T09:06:09;8.27;;;1.77;;
41568;SDS011;27283;52.504;13.358;2023-03-14T09:08:41;6.68;;;1.77;;
41568;SDS011;27283;52.504;13.358;2023-03-14T09:11:14;6.50;;;1.60;;
41568;SDS011;27283;52.504;13.358;2023-03-14T09:13:47;6.25;;;1.40;;
41568;SDS011;27283;52.504;13.358;2023-03-14T09:16:19;6.57;;;1.65;;
41568;SDS011;27283;52.504;13.358;2023-03-14T09:18:51;4.25;;;1.52;;
41568;SDS011;27283;52.504;13.358;2023-03-14T09:21:30;6.65;;;1.90;;
41568;SDS011;27283;52.504;13.358;2023-03-14T09:24:02;6.60;;;1.90;;
41568;SDS011;27283;52.504;13.358;2023-03-14T09:26:37;5.30;;;1.50;;
41568;SDS011;27283;52.504;13.358;2023-03-14T09:29:10;5.43;;;1.50;;
41568;SDS011;27283;52.504;13.358;2023-03-14T09:31:42;4.38;;;1.40;;
41568;SDS011;27283;52.504;13.358;2023-03-14T09:34:15;5.50;;;1.77;;
41568;SDS011;27283;52.504;13.358;2023-03-14T09:36:49;7.75;;;1.80;;
41568;SDS011;27283;52.504;13.358;2023-03-14T09:39:22;7.18;;;1.50;;
41568;SDS011;27283;52.504;13.358;2023-03-14T09:41:54;5.85;;;1.42;;
41568;SDS011;27283;52.504;13.358;2023-03-14T09:44:34;7.32;;;1.25;;
41568;SDS011;27283;52.504;13.358;2023-03-14T09:47:10;6.63;;;1.40;;
41568;SDS011;27283;52.504;13.358;2023-03-14T09:49:48;5.45;;;1.48;;
41568;SDS011;27283;52.504;13.358;2023-03-14T09:52:23;5.53;;;1.55;;
41568;SDS011;27283;52.504;13.358;2023-03-14T09:55:02;7.32;;;1.50;;
41568;SDS011;27283;52.504;13.358;2023-03-14T09:57:36;3.25;;;1.27;;
41568;SDS011;27283;52.504;13.358;2023-03-14T10:00:14;3.63;;;1.50;;
41568;SDS011;27283;52.504;13.358;2023-03-14T10:02:50;6.43;;;1.88;;
41568;SDS011;27283;52.504;13.358;2023-03-14T10:05:26;5.13;;;1.40;;
41568;SDS011;27283;52.504;13.358;2023-03-14T10:08:01;4.63;;;1.50;;
41568;SDS011;27283;52.504;13.358;2023-03-14T10:10:33;6.35;;;1.13;;
41568;SDS011;27283;52.504;13.358;2023-03-14T10:13:10;4.55;;;1.25;;
41568;SDS011;27283;52.504;13.358;2023-03-14T10:15:47;6.72;;;1.50;;
41568;SDS011;27283;52.504;13.358;2023-03-14T10:18:22;6.80;;;1.33;;
41568;SDS011;27283;52.504;13.358;2023-03-14T10:21:05;9.15;;;1.60;;
41568;SDS011;27283;52.504;13.358;2023-03-14T10:23:53;6.22;;;1.38;;
41568;SDS011;27283;52.504;13.358;2023-03-14T10:26:27;6.22;;;1.70;;
41568;SDS011;27283;52.504;13.358;2023-03-14T10:29:02;5.47;;;1.50;;
41568;SDS011;27283;52.504;13.358;2023-03-14T10:31:46;5.35;;;1.60;;
41568;SDS011;27283;52.504;13.358;2023-03-14T10:34:26;7.43;;;1.63;;
41568;SDS011;27283;52.504;13.358;2023-03-14T10:37:05;5.32;;;1.17;;
41568;SDS011;27283;52.504;13.358;2023-03-14T10:39:44;8.63;;;1.42;;
41568;SDS011;27283;52.504;13.358;2023-03-14T10:42:19;4.72;;;1.42;;
41568;SDS011;27283;52.504;13.358;2023-03-14T10:44:58;4.80;;;1.55;;
41568;SDS011;27283;52.504;13.358;2023-03-14T10:47:36;5.03;;;1.40;;
41568;SDS011;27283;52.504;13.358;2023-03-14T10:50:25;6.75;;;1.40;;
41568;SDS011;27283;52.504;13.358;2023-03-14T10:53:01;4.75;;;1.40;;
41568;SDS011;27283;52.504;13.358;2023-03-14T10:55:44;3.30;;;1.15;;
41568;SDS011;27283;52.504;13.358;2023-03-14T10:58:21;3.80;;;1.67;;
41568;SDS011;27283;52.504;13.358;2023-03-14T11:01:02;3.67;;;1.10;;
41568;SDS011;27283;52.504;13.358;2023-03-14T11:03:48;4.90;;;1.17;;
41568;SDS011;27283;52.504;13.358;2023-03-14T11:06:27;5.00;;;1.30;;
41568;SDS011;27283;52.504;13.358;2023-03-14T11:09:10;4.45;;;1.30;;
41568;SDS011;27283;52.504;13.358;2023-03-14T11:11:52;5.68;;;1.45;;
41568;SDS011;27283;52.504;13.358;2023-03-14T11:14:29;3.65;;;1.20;;
41568;SDS011;27283;52.504;13.358;2023-03-14T11:17:09;3.78;;;1.48;;
41568;SDS011;27283;52.504;13.358;2023-03-14T11:19:53;3.75;;;1.50;;
41568;SDS011;27283;52.504;13.358;2023-03-14T11:22:38;4.43;;;1.40;;
41568;SDS011;27283;52.504;13.358;2023-03-14T11:25:18;4.55;;;1.30;;
41568;SDS011;27283;52.504;13.358;2023-03-14T11:28:04;3.55;;;1.05;;
41568;SDS011;27283;52.504;13.358;2023-03-14T11:30:42;4.63;;;1.17;;
41568;SDS011;27283;52.504;13.358;2023-03-14T11:33:22;3.92;;;1.20;;
41568;SDS011;27283;52.504;13.358;2023-03-14T11:36:01;4.00;;;1.00;;
41568;SDS011;27283;52.504;13.358;2023-03-14T11:38:38;2.95;;;0.95;;
41568;SDS011;27283;52.504;13.358;2023-03-14T11:41:15;2.97;;;1.13;;
41568;SDS011;27283;52.504;13.358;2023-03-14T11:43:54;4.85;;;1.05;;
41568;SDS011;27283;52.504;13.358;2023-03-14T11:46:29;4.90;;;1.30;;
41568;SDS011;27283;52.504;13.358;2023-03-14T11:49:08;6.93;;;1.40;;
41568;SDS011;27283;52.504;13.358;2023-03-14T11:51:50;5.30;;;1.42;;
41568;SDS011;27283;52.504;13.358;2023-03-14T11:54:30;3.20;;;1.13;;
41568;SDS011;27283;52.504;13.358;2023-03-14T11:57:12;4.10;;;1.20;;
41568;SDS011;27283;52.504;13.358;2023-03-14T11:59:50;5.03;;;1.00;;
41568;SDS011;27283;52.504;13.358;2023-03-14T12:02:31;2.75;;;1.00;;
41568;SDS011;27283;52.504;13.358;2023-03-14T12:11:12;2.88;;;1.10;;
41568;SDS011;27283;52.504;13.358;2023-03-14T12:13:49;3.75;;;1.00;;
41568;SDS011;27283;52.504;13.358;2023-03-14T12:16:30;4.07;;;1.10;;
41568;SDS011;27283;52.504;13.358;2023-03-14T12:19:23;2.53;;;0.90;;
41568;SDS011;27283;52.504;13.358;2023-03-14T12:22:15;2.42;;;0.88;;
41568;SDS011;27283;52.504;13.358;2023-03-14T12:24:57;3.45;;;1.13;;
41568;SDS011;27283;52.504;13.358;2023-03-14T12:30:35;3.72;;;0.90;;
41568;SDS011;27283;52.504;13.358;2023-03-14T12:36:04;4.93;;;1.38;;
41568;SDS011;27283;52.504;13.358;2023-03-14T12:38:56;4.25;;;1.38;;
41568;SDS011;27283;52.504;13.358;2023-03-14T12:41:36;3.15;;;1.08;;
41568;SDS011;27283;52.504;13.358;2023-03-14T12:50:24;4.90;;;1.58;;
41568;SDS011;27283;52.504;13.358;2023-03-14T12:56:03;2.17;;;0.90;;
41568;SDS011;27283;52.504;13.358;2023-03-14T12:58:41;5.10;;;1.10;;
41568;SDS011;27283;52.504;13.358;2023-03-14T13:01:19;3.28;;;0.95;;
41568;SDS011;27283;52.504;13.358;2023-03-14T13:03:53;4.38;;;1.40;;
41568;SDS011;27283;52.504;13.358;2023-03-14T13:12:27;3.95;;;0.98;;
41568;SDS011;27283;52.504;13.358;2023-03-14T13:15:02;3.22;;;1.00;;
41568;SDS011;27283;52.504;13.358;2023-03-14T13:17:48;3.80;;;1.10;;
41568;SDS011;27283;52.504;13.358;2023-03-14T13:20:27;3.92;;;1.30;;
41568;SDS011;27283;52.504;13.358;2023-03-14T13:23:18;4.00;;;1.50;;
41568;SDS011;27283;52.504;13.358;2023-03-14T13:25:52;5.20;;;1.42;;
41568;SDS011;27283;52.504;13.358;2023-03-14T13:28:25;3.28;;;1.13;;
41568;SDS011;27283;52.504;13.358;2023-03-14T13:31:00;5.95;;;1.30;;
41568;SDS011;27283;52.504;13.358;2023-03-14T13:33:34;4.60;;;1.20;;
41568;SDS011;27283;52.504;13.358;2023-03-14T13:36:08;5.43;;;1.58;;
41568;SDS011;27283;52.504;13.358;2023-03-14T13:38:44;3.22;;;1.10;;
41568;SDS011;27283;52.504;13.358;2023-03-14T13:41:17;2.58;;;1.13;;
41568;SDS011;27283;52.504;13.358;2023-03-14T13:43:49;5.35;;;1.30;;
41568;SDS011;27283;52.504;13.358;2023-03-14T13:46:22;5.80;;;1.30;;
41568;SDS011;27283;52.504;13.358;2023-03-14T13:48:56;3.10;;;1.45;;
41568;SDS011;27283;52.504;13.358;2023-03-14T13:51:31;4.40;;;1.40;;
41568;SDS011;27283;52.504;13.358;2023-03-14T13:54:11;4.22;;;1.20;;
41568;SDS011;27283;52.504;13.358;2023-03-14T13:56:46;1.90;;;0.93;;
41568;SDS011;27283;52.504;13.358;2023-03-14T13:59:22;1.85;;;1.08;;
41568;SDS011;27283;52.504;13.358;2023-03-14T14:01:55;2.03;;;1.00;;
41568;SDS011;27283;52.504;13.358;2023-03-14T14:04:32;2.10;;;1.17;;
41568;SDS011;27283;52.504;13.358;2023-03-14T14:07:08;2.25;;;0.95;;
41568;SDS011;27283;52.504;13.358;2023-03-14T14:09:48;4.20;;;1.30;;
41568;SDS011;27283;52.504;13.358;2023-03-14T14:12:23;2.08;;;0.75;;
41568;SDS011;27283;52.504;13.358;2023-03-14T14:15:01;2.60;;;0.82;;
41568;SDS011;27283;52.504;13.358;2023-03-14T14:17:37;1.50;;;0.70;;
41568;SDS011;27283;52.504;13.358;2023-03-14T14:20:15;2.08;;;0.80;;
41568;SDS011;27283;52.504;13.358;2023-03-14T14:22:58;2.20;;;0.75;;
41568;SDS011;27283;52.504;13.358;2023-03-14T14:25:35;1.00;;;0.70;;
41568;SDS011;27283;52.504;13.358;2023-03-14T14:28:14;4.13;;;0.90;;
41568;SDS011;27283;52.504;13.358;2023-03-14T14:30:58;4.30;;;1.60;;
41568;SDS011;27283;52.504;13.358;2023-03-14T14:33:42;2.80;;;1.10;;
41568;SDS011;27283;52.504;13.358;2023-03-14T14:36:17;3.10;;;1.10;;
41568;SDS011;27283;52.504;13.358;2023-03-14T14:38:54;3.08;;;1.10;;
41568;SDS011;27283;52.504;13.358;2023-03-14T14:41:34;4.97;;;2.00;;
41568;SDS011;27283;52.504;13.358;2023-03-14T14:44:11;3.08;;;1.30;;
41568;SDS011;27283;52.504;13.358;2023-03-14T14:46:45;2.95;;;0.90;;
41568;SDS011;27283;52.504;13.358;2023-03-14T14:49:18;3.72;;;1.00;;
41568;SDS011;27283;52.504;13.358;2023-03-14T14:51:51;1.23;;;0.70;;
41568;SDS011;27283;52.504;13.358;2023-03-14T14:54:34;2.47;;;0.90;;
41568;SDS011;27283;52.504;13.358;2023-03-14T14:57:16;1.17;;;0.85;;
41568;SDS011;27283;52.504;13.358;2023-03-14T14:59:51;3.55;;;1.27;;
41568;SDS011;27283;52.504;13.358;2023-03-14T15:02:30;1.15;;;0.80;;
41568;SDS011;27283;52.504;13.358;2023-03-14T15:05:11;1.90;;;0.80;;
41568;SDS011;27283;52.504;13.358;2023-03-14T15:07:45;2.28;;;0.80;;
41568;SDS011;27283;52.504;13.358;2023-03-14T15:10:19;2.00;;;0.80;;
41568;SDS011;27283;52.504;13.358;2023-03-14T15:13:09;2.72;;;0.98;;
41568;SDS011;27283;52.504;13.358;2023-03-14T15:15:42;4.97;;;0.63;;
41568;SDS011;27283;52.504;13.358;2023-03-14T15:18:18;2.60;;;0.90;;
41568;SDS011;27283;52.504;13.358;2023-03-14T15:20:51;6.05;;;1.23;;
41568;SDS011;27283;52.504;13.358;2023-03-14T15:23:24;5.13;;;0.90;;
41568;SDS011;27283;52.504;13.358;2023-03-14T15:25:57;2.67;;;1.00;;
41568;SDS011;27283;52.504;13.358;2023-03-14T15:28:32;3.58;;;0.88;;
41568;SDS011;27283;52.504;13.358;2023-03-14T15:31:04;9.80;;;4.18;;
41568;SDS011;27283;52.504;13.358;2023-03-14T15:33:36;1.63;;;0.90;;
41568;SDS011;27283;52.504;13.358;2023-03-14T15:36:14;0.90;;;0.77;;
41568;SDS011;27283;52.504;13.358;2023-03-14T15:38:52;0.88;;;0.70;;
41568;SDS011;27283;52.504;13.358;2023-03-14T15:41:26;1.35;;;0.80;;
41568;SDS011;27283;52.504;13.358;2023-03-14T15:44:01;1.42;;;0.80;;
41568;SDS011;27283;52.504;13.358;2023-03-14T15:46:34;2.50;;;1.00;;
41568;SDS011;27283;52.504;13.358;2023-03-14T15:49:09;2.05;;;0.80;;